Time;durP1;ratioP1;P1;durP2;ratioP2;P2;SDS_P1;SDS_P2;PMS_P1;PMS_P2;Temp;Humidity;BMP_temperature;BMP_pressure;BME280_temperature;BME280_humidity;BME280_pressure;Samples;Min_cycle;Max_cycle;Signal;HPM_P1;HPM_P2
2022/02/09 00:02:07;;;;;;;3.70;2.30;;;8.10;99.90;;;;;;5093271;28;20825;-66
2022/02/09 00:04:40;;;;;;;4.13;2.50;;;8.00;99.90;;;;;;5093776;28;20438;-67
2022/02/09 00:07:11;;;;;;;6.13;3.03;;;8.10;99.90;;;;;;5092376;28;20481;-66
2022/02/09 00:09:40;;;;;;;7.53;2.90;;;8.10;99.90;;;;;;5091748;28;20509;-67
2022/02/09 00:12:16;;;;;;;4.00;2.60;;;8.10;99.90;;;;;;5092670;28;20993;-67
2022/02/09 00:14:53;;;;;;;3.87;2.63;;;8.10;99.90;;;;;;5092615;28;20457;-68
2022/02/09 00:20:29;;;;;;;5.60;3.50;;;8.20;99.90;;;;;;5090485;28;20515;-67
2022/02/09 00:23:32;;;;;;;4.07;2.63;;;8.20;99.90;;;;;;5092807;28;20529;-68
2022/02/09 00:29:11;;;;;;;4.17;3.20;;;8.20;99.90;;;;;;5092075;28;20526;-68
2022/02/09 00:34:39;;;;;;;4.70;3.20;;;8.20;99.90;;;;;;5092686;28;20417;-67
2022/02/09 00:37:21;;;;;;;4.47;2.60;;;8.10;99.90;;;;;;5092759;28;20578;-68
2022/02/09 00:40:28;;;;;;;5.17;3.27;;;8.10;99.90;;;;;;5092517;28;20479;-66
2022/02/09 00:43:28;;;;;;;3.73;2.73;;;8.00;99.90;;;;;;5092637;28;20454;-67
2022/02/09 01:38:44;;;;;;;3.83;2.67;;;8.20;99.90;;;;;;5091825;28;20461;-68
2022/02/09 01:55:32;;;;;;;7.10;3.80;;;8.10;99.90;;;;;;5091872;28;20536;-69
2022/02/09 01:57:59;;;;;;;9.20;3.97;;;8.10;99.90;;;;;;5091369;28;20461;-68
2022/02/09 02:00:27;;;;;;;8.07;4.70;;;8.10;99.90;;;;;;5091738;28;20442;-68
2022/02/09 02:02:54;;;;;;;7.87;3.93;;;8.10;99.90;;;;;;5091417;28;20489;-69
2022/02/09 02:05:22;;;;;;;6.73;4.27;;;8.10;99.90;;;;;;5092178;28;20816;-66
2022/02/09 02:07:52;;;;;;;6.63;3.23;;;8.10;99.90;;;;;;5091008;28;20485;-67
2022/02/09 02:10:27;;;;;;;5.10;3.47;;;8.10;99.90;;;;;;5091411;28;20549;-68
2022/02/09 02:13:06;;;;;;;4.40;2.90;;;8.00;99.90;;;;;;5091814;28;20502;-67
2022/02/09 02:16:01;;;;;;;7.00;4.03;;;8.00;99.90;;;;;;5091749;28;20450;-67
2022/02/09 02:18:29;;;;;;;7.07;3.83;;;8.00;99.90;;;;;;5091158;28;20574;-66
2022/02/09 02:21:08;;;;;;;5.93;3.43;;;8.00;99.90;;;;;;5090768;28;20445;-66
2022/02/09 02:26:43;;;;;;;7.20;4.53;;;8.00;99.90;;;;;;5088866;27;20545;-66
2022/02/09 02:29:41;;;;;;;7.33;4.80;;;7.90;99.90;;;;;;5068328;28;20471;-66
2022/02/09 02:57:10;;;;;;;7.70;4.87;;;8.00;99.90;;;;;;5068274;28;20450;-66
2022/02/09 03:07:39;;;;;;;8.47;5.63;;;7.80;99.90;;;;;;5068533;28;20517;-66
2022/02/09 03:08:31;;;;;;;9.40;4.70;;;7.80;99.90;;;;;;5027179;28;20443;-66
2022/02/09 03:11:21;;;;;;;5.70;4.50;;;7.80;99.90;;;;;;5067755;28;20487;-67
2022/02/09 03:13:56;;;;;;;11.13;4.27;;;7.80;99.90;;;;;;5067748;28;20443;-68
2022/02/09 03:16:34;;;;;;;7.20;4.93;;;7.80;99.90;;;;;;5067858;28;20449;-65
2022/02/09 03:19:27;;;;;;;6.33;4.33;;;7.80;99.90;;;;;;5067099;28;20466;-65
2022/02/09 03:22:11;;;;;;;7.30;4.63;;;7.80;99.90;;;;;;5067608;28;20443;-65
2022/02/09 03:24:56;;;;;;;6.60;4.37;;;7.80;99.90;;;;;;5067112;28;20792;-66
2022/02/09 03:27:34;;;;;;;7.60;3.90;;;7.70;99.90;;;;;;5066978;28;20534;-66
2022/02/09 03:44:05;;;;;;;6.07;4.77;;;7.60;99.90;;;;;;5053845;28;20423;-65
2022/02/09 03:46:53;;;;;;;8.27;5.20;;;7.60;99.90;;;;;;5053975;28;20483;-66
2022/02/09 03:49:35;;;;;;;11.63;5.90;;;7.60;99.90;;;;;;5053251;28;20507;-67
2022/02/09 03:52:10;;;;;;;7.17;5.20;;;7.70;99.90;;;;;;5053849;28;20448;-66
2022/02/09 03:54:41;;;;;;;8.40;4.77;;;7.70;99.90;;;;;;5053715;28;20428;-66
2022/02/09 03:57:22;;;;;;;8.27;4.47;;;7.70;99.90;;;;;;5053740;28;20475;-66
2022/02/09 03:59:49;;;;;;;12.40;5.80;;;7.60;99.90;;;;;;5053382;28;20992;-67
2022/02/09 04:02:16;;;;;;;11.10;6.57;;;7.60;99.90;;;;;;5053524;28;20446;-66
2022/02/09 04:04:47;;;;;;;11.30;5.60;;;7.60;99.90;;;;;;5053297;28;20902;-68
2022/02/09 04:07:14;;;;;;;8.13;5.23;;;7.60;99.90;;;;;;5052598;28;20482;-66
2022/02/09 04:09:46;;;;;;;7.20;4.77;;;7.70;99.90;;;;;;5052944;28;20547;-66
2022/02/09 04:12:27;;;;;;;8.77;5.50;;;7.70;99.90;;;;;;5053207;28;20455;-67
2022/02/09 04:14:59;;;;;;;8.00;4.70;;;7.70;99.90;;;;;;5052980;28;20565;-67
2022/02/09 04:17:33;;;;;;;6.73;5.27;;;7.70;99.90;;;;;;5053061;28;20440;-67
2022/02/09 04:20:21;;;;;;;7.80;4.70;;;7.70;99.90;;;;;;5053982;28;20542;-68
2022/02/09 04:36:30;;;;;;;8.20;5.70;;;7.70;99.90;;;;;;5053448;28;20427;-67
2022/02/09 04:39:03;;;;;;;8.03;5.27;;;7.70;99.90;;;;;;5053011;28;20486;-67
2022/02/09 04:44:32;;;;;;;12.10;6.90;;;7.70;99.90;;;;;;5053020;28;20419;-66
2022/02/09 04:50:08;;;;;;;9.70;5.97;;;7.60;99.90;;;;;;5044495;28;20531;-66
2022/02/09 04:52:53;;;;;;;7.50;5.30;;;7.60;99.90;;;;;;5052317;28;20448;-67
2022/02/09 04:55:37;;;;;;;13.17;5.40;;;7.50;99.90;;;;;;5052416;28;20817;-67
2022/02/09 04:58:10;;;;;;;12.73;6.27;;;7.60;99.90;;;;;;5052190;28;20826;-67
2022/02/09 05:00:45;;;;;;;7.07;5.87;;;7.60;99.90;;;;;;5052612;28;20459;-68
2022/02/09 05:22:44;;;;;;;8.53;4.87;;;7.60;99.90;;;;;;5053218;28;20435;-67
2022/02/09 05:28:02;;;;;;;8.90;5.53;;;7.60;99.90;;;;;;5038924;28;20877;-67
2022/02/09 05:30:29;;;;;;;6.30;5.53;;;7.60;99.90;;;;;;5054705;28;20444;-66
2022/02/09 05:32:56;;;;;;;9.40;5.43;;;7.60;99.90;;;;;;5053983;28;20440;-66
2022/02/09 05:35:23;;;;;;;9.73;6.70;;;7.60;99.90;;;;;;5053174;28;21016;-66
2022/02/09 05:37:52;;;;;;;9.90;6.03;;;7.60;99.90;;;;;;5052635;28;20864;-66
2022/02/09 05:40:21;;;;;;;11.37;6.50;;;7.60;99.90;;;;;;5052975;28;20440;-69
2022/02/09 05:42:48;;;;;;;8.17;5.60;;;7.60;99.90;;;;;;5053885;28;20440;-67
2022/02/09 05:45:16;;;;;;;10.87;5.80;;;7.60;99.90;;;;;;5053008;28;20514;-67
2022/02/09 05:48:32;;;;;;;9.30;5.70;;;7.60;99.90;;;;;;5053446;28;20468;-66
2022/02/09 05:50:57;;;;;;;10.33;5.87;;;7.60;99.90;;;;;;5053741;28;20440;-67
2022/02/09 05:53:27;;;;;;;7.80;5.20;;;7.60;99.90;;;;;;5052004;28;20444;-66
2022/02/09 05:56:06;;;;;;;12.03;6.03;;;7.60;99.90;;;;;;5051457;28;20476;-66
2022/02/09 05:58:37;;;;;;;7.27;5.57;;;7.60;99.90;;;;;;5050578;28;20467;-66
2022/02/09 06:01:05;;;;;;;8.13;6.00;;;7.60;99.90;;;;;;5058193;28;20473;-65
2022/02/09 06:03:33;;;;;;;6.93;5.50;;;7.60;99.90;;;;;;5061919;28;21335;-67
2022/02/09 06:06:00;;;;;;;6.87;4.90;;;7.60;99.90;;;;;;5060403;28;21046;-66
2022/02/09 06:08:27;;;;;;;10.10;5.00;;;7.50;99.90;;;;;;5065894;28;20499;-72
2022/02/09 06:11:09;;;;;;;4.90;3.93;;;7.60;99.90;;;;;;5054525;28;20536;-67
2022/02/09 06:13:55;;;;;;;7.03;4.57;;;7.60;99.90;;;;;;5053708;28;20545;-68
2022/02/09 06:21:57;;;;;;;9.17;4.63;;;7.70;99.90;;;;;;5060370;28;20473;-68
2022/02/09 06:24:25;;;;;;;7.90;4.73;;;7.70;99.90;;;;;;5063228;28;20486;-66
2022/02/09 06:26:53;;;;;;;8.80;4.50;;;7.70;99.90;;;;;;5066516;28;20502;-68
2022/02/09 06:29:20;;;;;;;6.10;4.77;;;7.70;99.90;;;;;;5066926;28;20535;-68
2022/02/09 06:31:48;;;;;;;4.77;3.50;;;7.80;99.90;;;;;;5066974;28;20443;-67
2022/02/09 06:34:18;;;;;;;6.80;3.33;;;7.80;99.90;;;;;;5068579;28;20455;-68
2022/02/09 06:36:51;;;;;;;6.20;3.47;;;7.80;99.90;;;;;;5067661;28;20987;-67
2022/02/09 06:39:20;;;;;;;6.67;3.47;;;7.80;99.90;;;;;;5068440;28;20470;-70
2022/02/09 06:41:47;;;;;;;5.87;3.80;;;7.80;99.90;;;;;;5068960;28;20443;-68
2022/02/09 06:44:15;;;;;;;5.27;3.70;;;7.80;99.90;;;;;;5066895;28;20440;-67
2022/02/09 06:46:42;;;;;;;7.27;3.93;;;7.80;99.90;;;;;;5072167;28;20487;-67
2022/02/09 06:49:10;;;;;;;7.93;3.17;;;7.80;99.90;;;;;;5068041;28;21025;-66
2022/02/09 06:51:39;;;;;;;7.10;2.70;;;7.90;99.90;;;;;;5059614;28;20449;-66
2022/02/09 06:54:12;;;;;;;5.90;3.07;;;7.90;99.90;;;;;;5051722;28;20523;-67
2022/02/09 06:57:02;;;;;;;6.10;3.17;;;8.00;99.90;;;;;;5050624;28;20460;-67
2022/02/09 06:59:41;;;;;;;4.27;2.67;;;8.00;99.90;;;;;;5048858;28;21007;-68
2022/02/09 07:02:08;;;;;;;4.10;2.70;;;8.00;99.90;;;;;;5048762;28;20526;-68
2022/02/09 07:04:37;;;;;;;6.07;2.37;;;8.00;99.90;;;;;;5048468;28;20448;-69
2022/02/09 07:07:04;;;;;;;3.33;2.20;;;8.10;99.90;;;;;;5050404;28;20555;-66
2022/02/09 07:09:32;;;;;;;7.10;2.83;;;8.10;99.90;;;;;;5050294;28;20939;-68
2022/02/09 07:11:59;;;;;;;4.20;2.50;;;8.10;99.90;;;;;;5051916;28;20505;-67
2022/02/09 07:14:28;;;;;;;4.43;2.37;;;8.20;99.90;;;;;;5054341;28;20505;-67
2022/02/09 07:16:57;;;;;;;4.13;2.47;;;8.20;99.90;;;;;;5053918;28;20483;-67
2022/02/09 07:19:26;;;;;;;4.33;2.37;;;8.20;99.90;;;;;;5054016;28;20549;-68
2022/02/09 07:21:53;;;;;;;6.03;3.40;;;8.20;99.90;;;;;;5053833;28;20460;-67
2022/02/09 07:24:21;;;;;;;5.53;2.83;;;8.20;99.90;;;;;;5053655;28;20454;-68
2022/02/09 07:27:23;;;;;;;6.53;2.80;;;8.20;99.90;;;;;;5053541;28;20479;-68
2022/02/09 07:29:49;;;;;;;6.60;3.27;;;8.30;99.90;;;;;;5054221;28;20467;-67
2022/02/09 07:32:17;;;;;;;6.43;2.87;;;8.40;99.90;;;;;;5054183;28;20474;-67
2022/02/09 07:34:44;;;;;;;4.13;2.33;;;8.30;99.90;;;;;;5054084;28;20740;-67
2022/02/09 07:37:11;;;;;;;5.70;3.00;;;8.30;99.90;;;;;;5053407;28;20501;-68
2022/02/09 07:39:39;;;;;;;7.43;3.70;;;8.20;99.90;;;;;;5053797;28;20479;-67
2022/02/09 07:42:11;;;;;;;6.90;3.70;;;8.10;99.90;;;;;;5054411;28;20460;-67
2022/02/09 07:44:53;;;;;;;6.93;4.97;;;8.00;99.90;;;;;;5054733;28;20993;-67
2022/02/09 07:50:30;;;;;;;9.93;5.00;;;7.90;99.90;;;;;;5052967;28;20440;-67
2022/02/09 07:53:07;;;;;;;5.63;4.30;;;7.80;99.90;;;;;;5054976;28;20443;-67
2022/02/09 07:55:34;;;;;;;9.53;4.10;;;7.80;99.90;;;;;;5054909;28;20451;-68
2022/02/09 07:58:01;;;;;;;5.50;4.23;;;7.70;99.90;;;;;;5054052;28;20460;-67
2022/02/09 08:00:28;;;;;;;7.60;4.20;;;7.70;99.90;;;;;;5054883;28;20494;-68
2022/02/09 08:02:57;;;;;;;6.63;3.63;;;7.60;99.90;;;;;;5054359;28;20540;-68
2022/02/09 08:05:24;;;;;;;7.43;4.20;;;7.60;99.90;;;;;;5054219;28;20452;-68
2022/02/09 08:07:52;;;;;;;8.30;4.53;;;7.60;99.90;;;;;;5053621;28;20547;-67
2022/02/09 08:10:25;;;;;;;5.97;4.00;;;7.60;99.90;;;;;;5054294;28;20444;-67
2022/02/09 08:20:25;;;;;;;8.20;4.33;;;7.60;99.90;;;;;;5054552;28;20444;-67
2022/02/09 08:27:18;;;;;;;7.00;4.10;;;8.30;99.90;;;;;;5050655;28;20478;-67
2022/02/09 08:29:46;;;;;;;11.13;5.07;;;8.40;99.90;;;;;;5050680;28;20901;-65
2022/02/09 08:32:37;;;;;;;4.90;3.60;;;8.60;99.90;;;;;;5051948;28;20898;-67
2022/02/09 08:35:06;;;;;;;7.20;5.20;;;8.60;99.90;;;;;;5053490;28;20495;-66
2022/02/09 08:37:33;;;;;;;6.53;4.60;;;8.70;99.90;;;;;;5052742;28;20460;-68
2022/02/09 08:40:00;;;;;;;6.50;3.90;;;8.80;99.90;;;;;;5053136;28;20452;-66
2022/02/09 08:42:27;;;;;;;7.23;5.30;;;8.90;99.90;;;;;;5052646;28;20479;-66
2022/02/09 08:44:54;;;;;;;8.77;4.73;;;9.10;99.90;;;;;;5052600;28;21005;-66
2022/02/09 08:47:21;;;;;;;6.83;4.10;;;9.20;99.90;;;;;;5052218;28;20503;-68
2022/02/09 08:49:49;;;;;;;7.10;4.77;;;9.30;99.90;;;;;;5052673;28;20487;-67
2022/02/09 08:52:17;;;;;;;10.30;5.50;;;9.50;99.90;;;;;;5052656;28;20448;-66
2022/02/09 08:54:44;;;;;;;8.83;5.17;;;9.70;99.90;;;;;;5052547;28;21228;-67
2022/02/09 08:57:11;;;;;;;11.97;4.60;;;9.80;99.90;;;;;;5052463;28;20452;-67
2022/02/09 08:59:39;;;;;;;6.87;4.20;;;10.00;99.90;;;;;;5052533;28;20484;-68
2022/02/09 09:02:11;;;;;;;11.27;4.20;;;10.20;99.90;;;;;;5052272;28;20886;-67
2022/02/09 09:04:43;;;;;;;7.57;3.90;;;10.30;99.90;;;;;;5052137;28;20453;-66
2022/02/09 09:07:14;;;;;;;5.83;4.20;;;10.60;99.90;;;;;;5052323;28;20492;-66
2022/02/09 10:02:40;;;;;;;7.30;4.90;;;14.60;99.90;;;;;;5052331;28;20428;-67
2022/02/09 10:05:35;;;;;;;4.30;2.50;;;14.80;99.90;;;;;;5052236;28;20505;-69
2022/02/09 10:31:05;;;;;;;4.70;2.73;;;16.80;99.90;;;;;;5052163;28;20524;-67
2022/02/09 10:33:35;;;;;;;6.93;3.00;;;17.10;99.90;;;;;;5052289;28;20444;-69
2022/02/09 10:36:13;;;;;;;3.80;2.10;;;17.10;99.90;;;;;;5052449;28;20799;-69
2022/02/09 10:38:42;;;;;;;4.83;1.93;;;16.90;99.90;;;;;;5051322;28;20475;-67
2022/02/09 10:41:11;;;;;;;4.60;2.47;;;17.50;99.90;;;;;;5052314;28;20459;-68
2022/02/09 10:43:40;;;;;;;5.93;2.60;;;17.80;99.60;;;;;;5052290;28;20900;-67
2022/02/09 10:46:12;;;;;;;6.60;2.40;;;18.10;98.30;;;;;;5051860;28;20542;-68
2022/02/09 10:48:51;;;;;;;4.90;2.70;;;18.40;98.20;;;;;;5055510;28;20992;-68
2022/02/09 10:51:30;;;;;;;4.40;2.30;;;18.40;97.10;;;;;;5055854;28;20721;-68
2022/02/09 10:54:06;;;;;;;4.20;2.33;;;18.50;97.80;;;;;;5055463;28;20909;-68
2022/02/09 10:56:34;;;;;;;5.47;2.70;;;19.10;96.80;;;;;;5055207;28;20444;-70
2022/02/09 10:59:03;;;;;;;4.83;2.57;;;19.40;95.90;;;;;;5054824;28;20492;-68
2022/02/09 11:01:31;;;;;;;4.83;2.13;;;19.70;95.60;;;;;;5054834;28;20535;-67
2022/02/09 11:04:00;;;;;;;3.63;2.30;;;20.20;95.20;;;;;;5054748;28;20957;-65
2022/02/09 11:06:29;;;;;;;8.37;2.97;;;20.40;94.60;;;;;;5054767;28;20468;-66
2022/02/09 11:08:56;;;;;;;4.27;2.80;;;20.50;93.50;;;;;;5054906;28;20510;-68
2022/02/09 11:11:24;;;;;;;6.03;3.03;;;20.60;93.20;;;;;;5055268;28;21011;-68
2022/02/09 11:13:51;;;;;;;9.43;3.07;;;20.20;93.00;;;;;;5056184;28;20848;-68
2022/02/09 11:16:19;;;;;;;4.53;3.00;;;20.30;92.60;;;;;;5055195;28;20436;-68
2022/02/09 11:18:48;;;;;;;5.60;3.40;;;20.70;92.20;;;;;;5055164;28;20510;-70
2022/02/09 11:21:17;;;;;;;5.23;3.13;;;20.60;92.00;;;;;;5054503;28;20444;-68
2022/02/09 11:23:50;;;;;;;5.90;3.40;;;21.20;91.70;;;;;;5054660;28;20451;-66
2022/02/09 11:26:41;;;;;;;6.70;4.03;;;21.50;91.30;;;;;;5053487;28;20844;-66
2022/02/09 11:32:20;;;;;;;5.80;2.97;;;22.10;89.40;;;;;;5053071;28;20937;-66
2022/02/09 11:38:20;;;;;;;6.63;3.63;;;23.10;86.00;;;;;;5052378;28;20547;-67
2022/02/09 11:41:05;;;;;;;5.37;2.90;;;22.60;85.60;;;;;;5052918;28;20448;-68
2022/02/09 11:43:45;;;;;;;7.07;3.20;;;20.90;85.20;;;;;;5052994;28;20479;-66
2022/02/09 11:46:30;;;;;;;6.10;2.80;;;18.90;90.60;;;;;;5053254;28;20440;-66
2022/02/09 12:01:13;;;;;;;5.80;2.90;;;18.50;92.60;;;;;;5054935;28;20427;-66
2022/02/09 12:10:12;;;;;;;5.63;3.30;;;15.90;96.50;;;;;;5054223;28;20572;-66
2022/02/09 12:12:45;;;;;;;7.13;3.33;;;15.20;96.80;;;;;;5046355;28;20504;-66
2022/02/09 12:15:43;;;;;;;7.43;3.23;;;14.70;97.80;;;;;;5053806;28;20444;-66
2022/02/09 12:18:24;;;;;;;7.33;3.20;;;14.40;98.10;;;;;;5053223;28;20981;-66
2022/02/09 12:20:58;;;;;;;6.40;3.20;;;14.00;99.10;;;;;;5052640;28;20877;-68
2022/02/09 12:23:32;;;;;;;6.43;2.83;;;13.80;99.90;;;;;;5052782;28;20521;-67
2022/02/09 12:26:06;;;;;;;4.27;3.30;;;13.70;99.90;;;;;;5052108;28;20467;-66
2022/02/09 12:28:37;;;;;;;4.03;2.60;;;13.60;99.90;;;;;;5050714;28;20570;-69
2022/02/09 12:31:06;;;;;;;5.00;2.77;;;13.50;99.90;;;;;;5052013;28;20452;-68
2022/02/09 12:33:34;;;;;;;4.60;2.80;;;13.40;99.90;;;;;;5052624;28;20479;-66
2022/02/09 12:36:12;;;;;;;6.93;3.30;;;13.40;99.90;;;;;;5053201;28;20855;-67
2022/02/09 12:38:40;;;;;;;6.90;3.00;;;13.30;99.90;;;;;;5053245;28;20492;-67
2022/02/09 12:41:15;;;;;;;6.93;3.20;;;13.30;99.90;;;;;;5061400;28;20818;-67
2022/02/09 12:43:50;;;;;;;7.47;3.30;;;13.30;99.90;;;;;;5072162;28;20521;-66
2022/02/09 12:46:18;;;;;;;4.00;2.57;;;13.20;99.90;;;;;;5052649;28;20527;-66
2022/02/09 12:48:45;;;;;;;5.80;3.40;;;13.10;99.90;;;;;;5053517;28;20488;-69
2022/02/09 12:51:30;;;;;;;5.20;3.10;;;13.00;99.90;;;;;;5056655;28;20760;-68
2022/02/09 12:53:59;;;;;;;5.60;2.60;;;13.10;99.90;;;;;;5055074;28;20574;-67
2022/02/09 12:56:29;;;;;;;4.60;2.50;;;13.10;99.90;;;;;;5050927;28;20570;-68
2022/02/09 12:59:07;;;;;;;8.27;3.40;;;13.10;99.90;;;;;;5051269;28;20533;-68
2022/02/09 13:01:47;;;;;;;7.37;3.37;;;13.10;99.90;;;;;;5049322;28;20479;-69
2022/02/09 13:04:29;;;;;;;8.40;2.93;;;13.10;99.90;;;;;;5049217;28;20451;-69
2022/02/09 13:06:56;;;;;;;5.60;3.00;;;13.10;99.90;;;;;;5049686;28;20575;-69
2022/02/09 13:09:25;;;;;;;4.60;2.70;;;13.20;99.90;;;;;;5051200;28;21301;-68
2022/02/09 13:11:53;;;;;;;5.60;2.80;;;13.30;99.90;;;;;;5066898;28;20970;-67
2022/02/09 13:14:29;;;;;;;5.93;2.40;;;13.20;99.90;;;;;;5071798;28;20838;-67
2022/02/09 13:17:12;;;;;;;5.53;2.37;;;13.10;99.90;;;;;;5075253;28;20890;-68
2022/02/09 14:13:33;;;;;;;4.40;2.60;;;12.80;99.90;;;;;;5062949;28;20487;-68
2022/02/09 14:47:10;;;;;;;5.10;2.20;;;12.90;99.90;;;;;;5063028;28;20431;-66
2022/02/09 14:52:33;;;;;;;5.50;2.00;;;12.80;99.90;;;;;;5048313;28;20790;-67
2022/02/09 14:55:11;;;;;;;4.87;2.27;;;12.80;99.90;;;;;;5050472;28;20456;-66
2022/02/09 14:57:43;;;;;;;4.90;2.20;;;12.90;99.90;;;;;;5057565;28;20451;-68
2022/02/09 15:00:16;;;;;;;4.20;1.60;;;13.00;99.90;;;;;;5056435;28;20438;-67
2022/02/09 15:02:59;;;;;;;3.87;2.40;;;13.00;99.90;;;;;;5057641;28;20467;-67
2022/02/09 15:05:56;;;;;;;4.90;2.37;;;13.00;99.90;;;;;;5057317;28;20455;-67
2022/02/09 15:08:31;;;;;;;5.87;1.80;;;12.90;99.90;;;;;;5057182;28;20486;-68
2022/02/09 15:11:13;;;;;;;5.43;2.10;;;13.00;99.90;;;;;;5057126;28;20447;-67
2022/02/09 15:13:53;;;;;;;4.00;2.40;;;13.00;99.90;;;;;;5055569;28;20827;-67
2022/02/09 15:16:25;;;;;;;4.73;2.10;;;13.00;99.90;;;;;;5058984;28;20559;-67
2022/02/09 15:22:01;;;;;;;3.97;2.40;;;13.00;99.90;;;;;;5052435;28;20690;-67
2022/02/09 15:24:37;;;;;;;7.23;2.77;;;12.90;99.90;;;;;;5067367;28;20475;-66
2022/02/09 15:27:05;;;;;;;4.57;2.77;;;12.80;99.90;;;;;;5067488;28;20434;-67
2022/02/09 15:29:36;;;;;;;5.37;2.60;;;12.80;99.90;;;;;;5058466;28;20574;-66
2022/02/09 15:32:08;;;;;;;6.53;2.93;;;12.80;99.90;;;;;;5052807;28;20453;-67
2022/02/09 15:34:40;;;;;;;4.27;2.13;;;12.70;99.90;;;;;;5051525;28;21495;-67
2022/02/09 15:37:13;;;;;;;6.23;2.60;;;12.70;99.90;;;;;;5057058;28;20471;-66
2022/02/09 15:39:45;;;;;;;5.13;2.53;;;12.70;99.90;;;;;;5060125;28;20467;-67
2022/02/09 15:42:46;;;;;;;6.60;3.20;;;12.80;99.90;;;;;;5063675;28;20471;-69
2022/02/09 15:56:35;;;;;;;5.60;2.60;;;12.60;99.90;;;;;;5063232;28;20447;-67
2022/02/09 16:24:00;;;;;;;4.20;3.20;;;11.50;99.90;;;;;;5074059;28;20454;-66
2022/02/09 16:37:52;;;;;;;6.90;3.00;;;10.60;99.90;;;;;;5059193;28;20892;-66
2022/02/09 16:48:48;;;;;;;6.30;3.20;;;10.10;99.90;;;;;;5006593;28;20490;-67
2022/02/09 16:51:18;;;;;;;5.33;3.70;;;10.10;99.90;;;;;;5065425;28;20470;-65
2022/02/09 16:53:53;;;;;;;6.77;3.80;;;10.00;99.90;;;;;;5065002;28;20459;-66
2022/02/09 16:56:41;;;;;;;7.37;3.50;;;9.80;99.90;;;;;;5060791;28;20507;-65
2022/02/09 17:21:06;;;;;;;9.87;4.40;;;8.60;99.90;;;;;;5070564;28;20533;-66
2022/02/09 17:23:33;;;;;;;6.73;3.30;;;8.50;99.90;;;;;;5072912;28;20443;-68
2022/02/09 17:26:00;;;;;;;5.30;3.40;;;8.30;99.90;;;;;;5072295;28;20455;-68
2022/02/09 17:28:29;;;;;;;5.47;2.80;;;8.20;99.90;;;;;;5073393;28;20490;-66
2022/02/09 17:31:06;;;;;;;10.13;3.23;;;8.10;99.90;;;;;;5064001;28;20500;-68
2022/02/09 17:33:49;;;;;;;6.10;3.20;;;8.20;99.90;;;;;;5065003;28;20451;-68
2022/02/09 17:36:22;;;;;;;4.77;3.63;;;8.20;99.90;;;;;;5067149;28;20467;-66
2022/02/09 17:38:56;;;;;;;6.70;3.10;;;8.20;99.90;;;;;;5063271;28;20819;-67
2022/02/09 17:55:47;;;;;;;7.40;4.47;;;8.00;99.90;;;;;;5061414;28;20450;-66
2022/02/09 17:58:17;;;;;;;9.43;5.57;;;7.90;99.90;;;;;;5063340;28;21014;-66
2022/02/09 18:00:44;;;;;;;7.40;4.40;;;7.80;99.90;;;;;;5065731;28;20435;-67
2022/02/09 18:03:12;;;;;;;12.07;5.23;;;7.70;99.90;;;;;;5064322;28;20513;-66
2022/02/09 18:05:46;;;;;;;14.47;5.30;;;7.60;99.90;;;;;;5052408;28;20440;-67
2022/02/09 18:08:20;;;;;;;11.87;6.37;;;7.40;99.90;;;;;;5058457;28;20486;-65
2022/02/09 18:10:56;;;;;;;9.70;7.20;;;7.20;99.90;;;;;;5052265;28;20533;-66
2022/02/09 18:13:45;;;;;;;11.97;6.90;;;7.20;99.90;;;;;;5055380;28;20450;-66
2022/02/09 18:30:19;;;;;;;10.63;7.60;;;6.80;99.90;;;;;;5069929;28;20427;-67
2022/02/09 18:33:07;;;;;;;11.03;6.17;;;6.90;99.90;;;;;;5072810;28;20526;-64
2022/02/09 18:39:06;;;;;;;11.37;6.60;;;7.00;99.90;;;;;;5069887;28;20884;-67
2022/02/09 18:44:30;;;;;;;10.07;6.43;;;6.90;99.90;;;;;;5066727;28;20462;-64
2022/02/09 19:03:28;;;;;;;11.33;8.13;;;6.60;99.90;;;;;;5060027;28;20427;-67
2022/02/09 19:05:57;;;;;;;12.13;7.57;;;6.60;99.90;;;;;;5062911;28;20518;-68
2022/02/09 19:17:02;;;;;;;12.80;7.40;;;6.30;99.90;;;;;;5068557;28;20471;-68
2022/02/09 19:19:54;;;;;;;10.33;7.43;;;6.10;99.90;;;;;;5073424;28;20994;-68
2022/02/09 19:30:54;;;;;;;12.30;7.30;;;6.10;99.90;;;;;;5068146;28;20443;-67
2022/02/09 19:47:05;;;;;;;11.17;7.83;;;5.30;99.90;;;;;;5068530;28;20423;-66
2022/02/09 19:52:19;;;;;;;10.20;8.20;;;5.20;99.90;;;;;;5071608;28;20799;-65
2022/02/09 19:55:03;;;;;;;12.23;8.03;;;5.00;99.90;;;;;;5076195;28;20497;-64
2022/02/09 19:57:34;;;;;;;15.63;9.60;;;4.90;99.90;;;;;;5075503;28;20453;-66
2022/02/09 20:00:03;;;;;;;15.37;9.17;;;4.80;99.90;;;;;;5076508;28;20458;-68
2022/02/09 20:02:30;;;;;;;13.17;9.33;;;4.80;99.90;;;;;;5077386;28;20431;-66
2022/02/09 20:04:57;;;;;;;19.43;9.17;;;4.80;99.90;;;;;;5077187;28;20501;-69
2022/02/09 20:07:25;;;;;;;13.00;9.20;;;4.70;99.90;;;;;;5076896;28;20888;-66
2022/02/09 20:09:52;;;;;;;13.60;9.90;;;4.70;99.90;;;;;;5075013;28;20471;-66
2022/02/09 20:12:19;;;;;;;14.00;10.13;;;4.70;99.90;;;;;;5076926;28;20530;-68
2022/02/09 20:14:48;;;;;;;11.23;8.37;;;4.70;99.90;;;;;;5077509;28;20462;-66
2022/02/09 20:17:17;;;;;;;11.80;9.00;;;4.60;99.90;;;;;;5072318;28;20550;-66
2022/02/09 20:19:53;;;;;;;14.50;8.53;;;4.60;99.90;;;;;;5076096;28;20455;-65
2022/02/09 20:22:20;;;;;;;13.70;9.30;;;4.60;99.90;;;;;;5076556;28;20454;-65
2022/02/09 20:24:47;;;;;;;13.17;9.60;;;4.50;99.90;;;;;;5067065;28;20441;-67
2022/02/09 20:27:18;;;;;;;16.07;10.07;;;4.50;99.90;;;;;;5066218;28;20451;-67
2022/02/09 20:29:46;;;;;;;11.57;8.90;;;4.40;99.90;;;;;;5075035;28;20475;-66
2022/02/09 20:32:18;;;;;;;12.90;9.73;;;4.50;99.90;;;;;;5074549;28;20432;-64
2022/02/09 20:34:52;;;;;;;10.47;8.80;;;4.50;99.90;;;;;;5074652;28;20542;-65
2022/02/09 20:37:22;;;;;;;13.20;9.57;;;4.50;99.90;;;;;;5073570;28;20447;-66
2022/02/09 20:40:05;;;;;;;13.63;9.50;;;4.60;99.90;;;;;;5072419;28;20462;-66
2022/02/09 20:42:32;;;;;;;13.60;10.10;;;4.60;99.90;;;;;;5072760;28;20450;-69
2022/02/09 20:45:05;;;;;;;13.20;9.40;;;4.50;99.90;;;;;;5075215;28;20475;-66
2022/02/09 20:47:33;;;;;;;13.67;9.63;;;4.50;99.90;;;;;;5074121;28;20467;-66
2022/02/09 20:50:01;;;;;;;15.33;9.83;;;4.40;99.90;;;;;;5073683;28;20483;-66
2022/02/09 20:52:28;;;;;;;14.87;10.67;;;4.30;99.90;;;;;;5061346;28;20537;-67
2022/02/09 20:54:55;;;;;;;14.00;9.87;;;4.20;99.90;;;;;;5055575;28;20453;-67
2022/02/09 20:57:21;;;;;;;13.17;10.40;;;4.20;99.90;;;;;;5066420;28;20530;-65
2022/02/09 20:59:52;;;;;;;16.40;10.93;;;4.20;99.90;;;;;;5070558;28;20483;-66
2022/02/09 21:02:42;;;;;;;13.20;10.70;;;4.10;99.90;;;;;;5068771;28;20542;-67
2022/02/09 21:05:29;;;;;;;15.90;11.43;;;4.10;99.90;;;;;;5068806;28;20577;-65
2022/02/09 21:08:08;;;;;;;15.37;11.07;;;4.10;99.90;;;;;;5068785;28;20458;-64
2022/02/09 21:10:43;;;;;;;14.97;11.53;;;4.10;99.90;;;;;;5068285;28;20450;-66
2022/02/09 21:13:18;;;;;;;22.93;12.03;;;4.20;99.90;;;;;;5055160;28;20452;-65
2022/02/09 21:15:56;;;;;;;15.17;10.60;;;4.20;99.90;;;;;;5049887;28;20447;-64
2022/02/09 21:18:42;;;;;;;15.50;10.83;;;4.20;99.90;;;;;;5064789;28;20976;-66
2022/02/09 21:21:44;;;;;;;17.30;12.07;;;4.30;99.90;;;;;;5050503;28;20447;-65
2022/02/09 21:24:38;;;;;;;17.93;12.10;;;4.30;99.90;;;;;;5054668;28;20439;-67
2022/02/09 21:54:58;;;;;;;14.70;11.03;;;3.80;99.90;;;;;;5060790;28;20423;-66
2022/02/09 21:57:36;;;;;;;14.80;10.47;;;3.80;99.90;;;;;;5062691;28;20872;-65
2022/02/09 22:00:27;;;;;;;19.33;10.50;;;3.70;99.90;;;;;;5054326;28;20522;-63
2022/02/09 22:16:51;;;;;;;15.03;9.60;;;3.30;99.90;;;;;;5066596;28;20577;-65
2022/02/09 22:19:43;;;;;;;13.77;10.10;;;3.20;99.90;;;;;;5066093;28;21041;-65
2022/02/09 22:22:29;;;;;;;13.23;9.37;;;3.20;99.90;;;;;;5063941;28;20443;-66
2022/02/09 22:27:44;;;;;;;16.90;11.23;;;3.20;99.90;;;;;;5065721;28;20541;-65
2022/02/09 22:55:01;;;;;;;11.90;9.97;;;3.10;99.90;;;;;;5071198;28;20809;-64
2022/02/09 22:57:40;;;;;;;12.60;10.53;;;3.10;99.90;;;;;;5071102;28;20473;-64
2022/02/09 23:00:15;;;;;;;11.43;9.87;;;3.00;99.90;;;;;;5068447;28;20450;-63
2022/02/09 23:02:48;;;;;;;19.47;10.70;;;2.90;99.90;;;;;;5066182;28;20462;-65
2022/02/09 23:05:34;;;;;;;13.57;10.70;;;2.90;99.90;;;;;;5060232;28;21031;-66
2022/02/09 23:08:17;;;;;;;12.17;9.20;;;2.80;99.90;;;;;;5052230;28;20468;-64
2022/02/09 23:11:05;;;;;;;13.97;9.37;;;2.80;99.90;;;;;;5062377;28;20482;-63
2022/02/09 23:13:42;;;;;;;14.33;9.20;;;2.70;99.90;;;;;;5060248;28;20444;-65
2022/02/09 23:16:21;;;;;;;19.83;10.10;;;2.60;99.90;;;;;;5065619;28;20458;-66
2022/02/09 23:24:45;;;;;;;13.60;10.03;;;2.60;99.90;;;;;;5029554;28;20447;-66
2022/02/09 23:27:44;;;;;;;14.47;10.43;;;2.60;99.90;;;;;;5069214;28;20447;-66
2022/02/09 23:58:02;;;;;;;12.20;9.40;;;2.50;99.90;;;;;;5053341;28;20440;-66
